sensor_id;sensor_type;location;lat;lon;timestamp;temperature;humidity
1988;DHT22;12775;46.994;15.498;2024-02-21T00:00:58;5.00;87.60
1988;DHT22;12775;46.994;15.498;2024-02-21T00:03:24;5.10;87.10
1988;DHT22;12775;46.994;15.498;2024-02-21T00:05:51;5.10;87.50
1988;DHT22;12775;46.994;15.498;2024-02-21T00:08:17;5.00;86.20
1988;DHT22;12775;46.994;15.498;2024-02-21T00:10:45;5.00;87.00
1988;DHT22;12775;46.994;15.498;2024-02-21T00:13:11;4.90;86.90
1988;DHT22;12775;46.994;15.498;2024-02-21T00:15:38;5.00;86.90
1988;DHT22;12775;46.994;15.498;2024-02-21T00:18:05;4.90;87.10
1988;DHT22;12775;46.994;15.498;2024-02-21T00:20:31;4.90;86.70
1988;DHT22;12775;46.994;15.498;2024-02-21T00:22:58;4.80;86.30
1988;DHT22;12775;46.994;15.498;2024-02-21T00:25:24;4.90;87.00
1988;DHT22;12775;46.994;15.498;2024-02-21T00:27:51;4.80;86.80
1988;DHT22;12775;46.994;15.498;2024-02-21T00:30:18;4.70;87.80
1988;DHT22;12775;46.994;15.498;2024-02-21T00:32:44;4.80;87.80
1988;DHT22;12775;46.994;15.498;2024-02-21T00:35:11;4.70;88.40
1988;DHT22;12775;46.994;15.498;2024-02-21T00:37:37;4.70;88.30
1988;DHT22;12775;46.994;15.498;2024-02-21T00:40:05;4.70;87.50
1988;DHT22;12775;46.994;15.498;2024-02-21T00:42:31;4.70;87.80
1988;DHT22;12775;46.994;15.498;2024-02-21T00:44:58;4.70;87.90
1988;DHT22;12775;46.994;15.498;2024-02-21T00:47:24;4.70;88.90
1988;DHT22;12775;46.994;15.498;2024-02-21T00:49:52;4.50;88.30
1988;DHT22;12775;46.994;15.498;2024-02-21T00:52:19;4.40;89.00
1988;DHT22;12775;46.994;15.498;2024-02-21T00:54:46;4.40;89.00
1988;DHT22;12775;46.994;15.498;2024-02-21T00:57:12;4.40;90.10
1988;DHT22;12775;46.994;15.498;2024-02-21T00:59:39;4.30;90.30
1988;DHT22;12775;46.994;15.498;2024-02-21T01:02:06;4.40;90.60
1988;DHT22;12775;46.994;15.498;2024-02-21T01:04:33;4.30;90.50
1988;DHT22;12775;46.994;15.498;2024-02-21T01:06:59;4.40;90.70
1988;DHT22;12775;46.994;15.498;2024-02-21T01:09:26;4.40;90.90
1988;DHT22;12775;46.994;15.498;2024-02-21T01:11:54;4.50;91.30
1988;DHT22;12775;46.994;15.498;2024-02-21T01:14:21;4.40;91.20
1988;DHT22;12775;46.994;15.498;2024-02-21T01:16:47;4.40;91.30
1988;DHT22;12775;46.994;15.498;2024-02-21T01:19:14;4.40;92.00
1988;DHT22;12775;46.994;15.498;2024-02-21T01:21:41;4.30;92.00
1988;DHT22;12775;46.994;15.498;2024-02-21T01:24:07;4.40;92.00
1988;DHT22;12775;46.994;15.498;2024-02-21T01:26:34;4.40;92.10
1988;DHT22;12775;46.994;15.498;2024-02-21T01:29:00;4.50;92.50
1988;DHT22;12775;46.994;15.498;2024-02-21T01:31:27;4.50;92.50
1988;DHT22;12775;46.994;15.498;2024-02-21T01:33:53;4.40;92.50
1988;DHT22;12775;46.994;15.498;2024-02-21T01:36:20;4.40;92.60
1988;DHT22;12775;46.994;15.498;2024-02-21T01:38:47;4.50;92.60
1988;DHT22;12775;46.994;15.498;2024-02-21T01:41:13;4.50;92.50
1988;DHT22;12775;46.994;15.498;2024-02-21T01:43:40;4.60;92.50
1988;DHT22;12775;46.994;15.498;2024-02-21T01:46:06;4.50;92.50
1988;DHT22;12775;46.994;15.498;2024-02-21T01:48:33;4.50;92.70
1988;DHT22;12775;46.994;15.498;2024-02-21T01:51:00;4.40;93.20
1988;DHT22;12775;46.994;15.498;2024-02-21T01:53:30;4.40;93.50
1988;DHT22;12775;46.994;15.498;2024-02-21T01:55:56;4.30;93.90
1988;DHT22;12775;46.994;15.498;2024-02-21T01:58:23;4.30;93.90
1988;DHT22;12775;46.994;15.498;2024-02-21T02:00:50;4.30;93.90
1988;DHT22;12775;46.994;15.498;2024-02-21T02:03:16;4.20;94.30
1988;DHT22;12775;46.994;15.498;2024-02-21T02:05:48;4.20;94.50
1988;DHT22;12775;46.994;15.498;2024-02-21T02:08:14;4.30;94.80
1988;DHT22;12775;46.994;15.498;2024-02-21T02:10:41;4.30;94.80
1988;DHT22;12775;46.994;15.498;2024-02-21T02:13:08;4.30;95.00
1988;DHT22;12775;46.994;15.498;2024-02-21T02:15:42;4.30;95.30
1988;DHT22;12775;46.994;15.498;2024-02-21T02:18:08;4.40;95.20
1988;DHT22;12775;46.994;15.498;2024-02-21T02:20:35;4.40;95.10
1988;DHT22;12775;46.994;15.498;2024-02-21T02:23:19;4.30;95.70
1988;DHT22;12775;46.994;15.498;2024-02-21T02:25:43;4.40;95.70
1988;DHT22;12775;46.994;15.498;2024-02-21T02:28:10;4.10;96.60
1988;DHT22;12775;46.994;15.498;2024-02-21T02:30:37;4.10;96.90
1988;DHT22;12775;46.994;15.498;2024-02-21T02:33:04;4.20;96.60
1988;DHT22;12775;46.994;15.498;2024-02-21T02:35:30;4.30;96.40
1988;DHT22;12775;46.994;15.498;2024-02-21T02:37:57;4.20;96.50
1988;DHT22;12775;46.994;15.498;2024-02-21T02:40:23;4.20;97.10
1988;DHT22;12775;46.994;15.498;2024-02-21T02:42:50;4.20;97.10
1988;DHT22;12775;46.994;15.498;2024-02-21T02:45:16;4.10;97.60
1988;DHT22;12775;46.994;15.498;2024-02-21T02:47:45;4.20;97.50
1988;DHT22;12775;46.994;15.498;2024-02-21T02:50:12;4.20;97.50
1988;DHT22;12775;46.994;15.498;2024-02-21T02:52:38;4.20;98.10
1988;DHT22;12775;46.994;15.498;2024-02-21T02:55:05;4.20;98.20
1988;DHT22;12775;46.994;15.498;2024-02-21T02:57:32;4.10;99.10
1988;DHT22;12775;46.994;15.498;2024-02-21T02:59:59;4.00;99.40
1988;DHT22;12775;46.994;15.498;2024-02-21T03:02:25;3.70;99.90
1988;DHT22;12775;46.994;15.498;2024-02-21T03:04:52;3.60;99.90
1988;DHT22;12775;46.994;15.498;2024-02-21T03:07:19;3.70;99.90
1988;DHT22;12775;46.994;15.498;2024-02-21T03:09:45;3.70;99.90
1988;DHT22;12775;46.994;15.498;2024-02-21T03:12:11;3.60;99.90
1988;DHT22;12775;46.994;15.498;2024-02-21T03:14:38;3.70;99.90
1988;DHT22;12775;46.994;15.498;2024-02-21T03:17:05;3.80;99.90
1988;DHT22;12775;46.994;15.498;2024-02-21T03:19:31;3.80;99.90
1988;DHT22;12775;46.994;15.498;2024-02-21T03:21:58;3.60;99.90
1988;DHT22;12775;46.994;15.498;2024-02-21T03:24:24;3.40;99.90
1988;DHT22;12775;46.994;15.498;2024-02-21T03:26:51;3.30;99.90
1988;DHT22;12775;46.994;15.498;2024-02-21T03:29:18;3.20;99.90
1988;DHT22;12775;46.994;15.498;2024-02-21T03:31:44;3.30;99.90
1988;DHT22;12775;46.994;15.498;2024-02-21T03:34:11;3.30;99.90
1988;DHT22;12775;46.994;15.498;2024-02-21T03:36:37;3.40;99.90
1988;DHT22;12775;46.994;15.498;2024-02-21T03:39:04;3.30;99.90
1988;DHT22;12775;46.994;15.498;2024-02-21T03:41:31;3.40;99.90
1988;DHT22;12775;46.994;15.498;2024-02-21T03:43:57;3.60;99.90
1988;DHT22;12775;46.994;15.498;2024-02-21T03:46:24;3.70;99.90
1988;DHT22;12775;46.994;15.498;2024-02-21T03:48:50;3.80;99.90
1988;DHT22;12775;46.994;15.498;2024-02-21T03:51:17;3.80;99.90
1988;DHT22;12775;46.994;15.498;2024-02-21T03:53:43;3.70;99.90
1988;DHT22;12775;46.994;15.498;2024-02-21T03:56:10;3.70;99.90
1988;DHT22;12775;46.994;15.498;2024-02-21T03:58:37;3.80;99.90
1988;DHT22;12775;46.994;15.498;2024-02-21T04:01:03;3.80;99.90
1988;DHT22;12775;46.994;15.498;2024-02-21T04:03:30;4.00;99.90
1988;DHT22;12775;46.994;15.498;2024-02-21T04:05:56;4.10;99.90
1988;DHT22;12775;46.994;15.498;2024-02-21T04:08:23;4.10;99.90
1988;DHT22;12775;46.994;15.498;2024-02-21T04:10:50;4.10;99.90
1988;DHT22;12775;46.994;15.498;2024-02-21T04:13:16;4.10;99.90
1988;DHT22;12775;46.994;15.498;2024-02-21T04:15:43;4.20;99.90
1988;DHT22;12775;46.994;15.498;2024-02-21T04:18:09;4.30;99.90
1988;DHT22;12775;46.994;15.498;2024-02-21T04:20:36;4.40;99.90
1988;DHT22;12775;46.994;15.498;2024-02-21T04:23:03;4.60;99.90
1988;DHT22;12775;46.994;15.498;2024-02-21T04:25:30;4.60;99.90
1988;DHT22;12775;46.994;15.498;2024-02-21T04:27:57;4.70;99.90
1988;DHT22;12775;46.994;15.498;2024-02-21T04:30:23;4.70;99.90
1988;DHT22;12775;46.994;15.498;2024-02-21T04:32:50;4.80;99.90
1988;DHT22;12775;46.994;15.498;2024-02-21T04:35:16;4.80;99.90
1988;DHT22;12775;46.994;15.498;2024-02-21T04:37:44;4.80;99.90
1988;DHT22;12775;46.994;15.498;2024-02-21T04:40:11;4.80;99.90
1988;DHT22;12775;46.994;15.498;2024-02-21T04:42:38;4.80;99.90
1988;DHT22;12775;46.994;15.498;2024-02-21T04:45:06;4.80;99.90
1988;DHT22;12775;46.994;15.498;2024-02-21T04:47:32;4.80;99.90
1988;DHT22;12775;46.994;15.498;2024-02-21T04:49:59;4.80;99.90
1988;DHT22;12775;46.994;15.498;2024-02-21T04:52:25;4.90;99.90
1988;DHT22;12775;46.994;15.498;2024-02-21T04:54:52;5.00;99.70
1988;DHT22;12775;46.994;15.498;2024-02-21T04:57:19;5.00;99.90
1988;DHT22;12775;46.994;15.498;2024-02-21T04:59:45;5.10;99.60
1988;DHT22;12775;46.994;15.498;2024-02-21T05:02:12;5.10;99.50
1988;DHT22;12775;46.994;15.498;2024-02-21T05:04:38;5.20;99.40
1988;DHT22;12775;46.994;15.498;2024-02-21T05:07:05;5.20;99.40
1988;DHT22;12775;46.994;15.498;2024-02-21T05:09:32;5.20;99.00
1988;DHT22;12775;46.994;15.498;2024-02-21T05:11:58;5.20;99.10
1988;DHT22;12775;46.994;15.498;2024-02-21T05:14:26;5.20;99.10
1988;DHT22;12775;46.994;15.498;2024-02-21T05:16:53;5.10;98.80
1988;DHT22;12775;46.994;15.498;2024-02-21T05:19:19;5.20;98.40
1988;DHT22;12775;46.994;15.498;2024-02-21T05:21:46;5.20;98.10
1988;DHT22;12775;46.994;15.498;2024-02-21T05:24:12;5.20;98.00
1988;DHT22;12775;46.994;15.498;2024-02-21T05:26:39;5.30;97.70
1988;DHT22;12775;46.994;15.498;2024-02-21T05:29:06;5.30;97.60
1988;DHT22;12775;46.994;15.498;2024-02-21T05:34:11;5.40;97.30
1988;DHT22;12775;46.994;15.498;2024-02-21T05:36:37;5.40;97.20
1988;DHT22;12775;46.994;15.498;2024-02-21T05:39:04;5.40;96.70
1988;DHT22;12775;46.994;15.498;2024-02-21T05:41:30;5.40;96.40
1988;DHT22;12775;46.994;15.498;2024-02-21T05:43:57;5.50;95.70
1988;DHT22;12775;46.994;15.498;2024-02-21T05:46:24;5.50;95.80
1988;DHT22;12775;46.994;15.498;2024-02-21T05:48:51;5.50;96.10
1988;DHT22;12775;46.994;15.498;2024-02-21T05:51:18;5.40;96.10
1988;DHT22;12775;46.994;15.498;2024-02-21T05:53:44;5.50;96.50
1988;DHT22;12775;46.994;15.498;2024-02-21T05:56:11;5.40;96.50
1988;DHT22;12775;46.994;15.498;2024-02-21T05:58:38;5.40;96.20
1988;DHT22;12775;46.994;15.498;2024-02-21T06:01:04;5.40;95.90
1988;DHT22;12775;46.994;15.498;2024-02-21T06:03:31;5.40;95.70
1988;DHT22;12775;46.994;15.498;2024-02-21T06:05:57;5.40;95.40
1988;DHT22;12775;46.994;15.498;2024-02-21T06:08:24;5.40;94.70
1988;DHT22;12775;46.994;15.498;2024-02-21T06:10:50;5.30;94.60
1988;DHT22;12775;46.994;15.498;2024-02-21T06:13:19;5.30;94.60
1988;DHT22;12775;46.994;15.498;2024-02-21T06:15:45;5.20;95.10
1988;DHT22;12775;46.994;15.498;2024-02-21T06:18:12;5.20;95.90
1988;DHT22;12775;46.994;15.498;2024-02-21T06:20:38;5.10;96.20
1988;DHT22;12775;46.994;15.498;2024-02-21T06:23:05;5.00;96.10
1988;DHT22;12775;46.994;15.498;2024-02-21T06:25:32;5.00;96.70
1988;DHT22;12775;46.994;15.498;2024-02-21T06:27:59;5.00;96.90
1988;DHT22;12775;46.994;15.498;2024-02-21T06:30:26;4.90;96.80
1988;DHT22;12775;46.994;15.498;2024-02-21T06:32:52;4.90;96.90
1988;DHT22;12775;46.994;15.498;2024-02-21T06:35:20;4.90;96.90
1988;DHT22;12775;46.994;15.498;2024-02-21T06:37:46;4.90;96.90
1988;DHT22;12775;46.994;15.498;2024-02-21T06:40:13;5.00;96.90
1988;DHT22;12775;46.994;15.498;2024-02-21T06:42:40;5.00;97.40
1988;DHT22;12775;46.994;15.498;2024-02-21T06:45:06;5.00;98.00
1988;DHT22;12775;46.994;15.498;2024-02-21T06:47:33;5.10;99.40
1988;DHT22;12775;46.994;15.498;2024-02-21T06:50:00;5.30;99.90
1988;DHT22;12775;46.994;15.498;2024-02-21T06:52:28;5.50;99.90
1988;DHT22;12775;46.994;15.498;2024-02-21T06:54:54;5.70;99.90
1988;DHT22;12775;46.994;15.498;2024-02-21T06:57:21;5.80;99.90
1988;DHT22;12775;46.994;15.498;2024-02-21T06:59:48;5.80;99.90
1988;DHT22;12775;46.994;15.498;2024-02-21T07:02:14;5.90;99.90
1988;DHT22;12775;46.994;15.498;2024-02-21T07:04:41;6.00;99.90
1988;DHT22;12775;46.994;15.498;2024-02-21T07:07:08;6.10;99.90
1988;DHT22;12775;46.994;15.498;2024-02-21T07:09:34;6.30;99.90
1988;DHT22;12775;46.994;15.498;2024-02-21T07:12:01;6.40;99.90
1988;DHT22;12775;46.994;15.498;2024-02-21T07:14:28;6.40;99.90
1988;DHT22;12775;46.994;15.498;2024-02-21T07:16:55;6.50;99.90
1988;DHT22;12775;46.994;15.498;2024-02-21T07:19:21;6.60;99.90
1988;DHT22;12775;46.994;15.498;2024-02-21T07:21:48;6.60;99.90
1988;DHT22;12775;46.994;15.498;2024-02-21T07:24:15;6.70;99.90
1988;DHT22;12775;46.994;15.498;2024-02-21T07:26:41;6.80;99.90
1988;DHT22;12775;46.994;15.498;2024-02-21T07:29:08;6.90;99.90
1988;DHT22;12775;46.994;15.498;2024-02-21T07:31:42;7.00;99.90
1988;DHT22;12775;46.994;15.498;2024-02-21T07:34:08;7.00;99.90
1988;DHT22;12775;46.994;15.498;2024-02-21T07:36:34;7.10;99.90
1988;DHT22;12775;46.994;15.498;2024-02-21T07:39:01;7.10;99.00
1988;DHT22;12775;46.994;15.498;2024-02-21T07:41:28;7.20;97.70
1988;DHT22;12775;46.994;15.498;2024-02-21T07:43:55;7.20;96.20
1988;DHT22;12775;46.994;15.498;2024-02-21T07:46:22;7.30;94.30
1988;DHT22;12775;46.994;15.498;2024-02-21T07:48:48;7.30;93.90
1988;DHT22;12775;46.994;15.498;2024-02-21T07:51:15;7.30;93.80
1988;DHT22;12775;46.994;15.498;2024-02-21T07:53:42;7.30;94.60
1988;DHT22;12775;46.994;15.498;2024-02-21T07:56:09;7.40;96.10
1988;DHT22;12775;46.994;15.498;2024-02-21T07:58:35;7.40;94.80
1988;DHT22;12775;46.994;15.498;2024-02-21T08:01:02;7.50;94.10
1988;DHT22;12775;46.994;15.498;2024-02-21T08:03:29;7.50;95.70
1988;DHT22;12775;46.994;15.498;2024-02-21T08:05:55;7.50;96.00
1988;DHT22;12775;46.994;15.498;2024-02-21T08:08:22;7.60;95.90
1988;DHT22;12775;46.994;15.498;2024-02-21T08:10:49;7.70;96.70
1988;DHT22;12775;46.994;15.498;2024-02-21T08:13:16;7.90;95.50
1988;DHT22;12775;46.994;15.498;2024-02-21T08:15:43;7.80;95.50
1988;DHT22;12775;46.994;15.498;2024-02-21T08:18:12;7.90;98.10
1988;DHT22;12775;46.994;15.498;2024-02-21T08:20:41;8.00;95.50
1988;DHT22;12775;46.994;15.498;2024-02-21T08:23:10;8.20;98.70
1988;DHT22;12775;46.994;15.498;2024-02-21T08:25:37;8.50;99.90
1988;DHT22;12775;46.994;15.498;2024-02-21T08:28:04;8.70;99.80
1988;DHT22;12775;46.994;15.498;2024-02-21T08:30:30;8.90;99.30
1988;DHT22;12775;46.994;15.498;2024-02-21T08:32:58;9.10;98.90
1988;DHT22;12775;46.994;15.498;2024-02-21T08:35:24;9.20;92.70
1988;DHT22;12775;46.994;15.498;2024-02-21T08:37:52;9.40;91.00
1988;DHT22;12775;46.994;15.498;2024-02-21T08:40:19;9.50;89.30
1988;DHT22;12775;46.994;15.498;2024-02-21T08:42:46;9.60;90.20
1988;DHT22;12775;46.994;15.498;2024-02-21T08:45:13;9.70;90.20
1988;DHT22;12775;46.994;15.498;2024-02-21T08:47:39;9.80;90.90
1988;DHT22;12775;46.994;15.498;2024-02-21T08:50:07;9.90;89.50
1988;DHT22;12775;46.994;15.498;2024-02-21T08:52:35;10.00;87.40
1988;DHT22;12775;46.994;15.498;2024-02-21T08:55:03;10.00;87.40
1988;DHT22;12775;46.994;15.498;2024-02-21T08:57:30;10.10;85.70
1988;DHT22;12775;46.994;15.498;2024-02-21T08:59:56;10.10;84.50
1988;DHT22;12775;46.994;15.498;2024-02-21T09:02:23;10.10;83.70
1988;DHT22;12775;46.994;15.498;2024-02-21T09:04:50;10.20;84.30
1988;DHT22;12775;46.994;15.498;2024-02-21T09:07:17;10.10;84.20
1988;DHT22;12775;46.994;15.498;2024-02-21T09:09:44;10.30;85.20
1988;DHT22;12775;46.994;15.498;2024-02-21T09:12:11;10.30;85.20
1988;DHT22;12775;46.994;15.498;2024-02-21T09:14:37;10.40;85.40
1988;DHT22;12775;46.994;15.498;2024-02-21T09:17:05;10.50;84.60
1988;DHT22;12775;46.994;15.498;2024-02-21T09:19:33;10.60;83.90
1988;DHT22;12775;46.994;15.498;2024-02-21T09:21:59;10.70;84.40
1988;DHT22;12775;46.994;15.498;2024-02-21T09:24:26;10.80;83.30
1988;DHT22;12775;46.994;15.498;2024-02-21T09:26:53;10.80;80.90
1988;DHT22;12775;46.994;15.498;2024-02-21T09:29:20;10.80;80.70
1988;DHT22;12775;46.994;15.498;2024-02-21T09:31:46;10.90;80.00
1988;DHT22;12775;46.994;15.498;2024-02-21T09:34:13;11.00;80.80
1988;DHT22;12775;46.994;15.498;2024-02-21T09:36:39;11.00;80.00
1988;DHT22;12775;46.994;15.498;2024-02-21T09:39:06;11.00;75.70
1988;DHT22;12775;46.994;15.498;2024-02-21T09:41:33;11.10;78.00
1988;DHT22;12775;46.994;15.498;2024-02-21T09:43:59;11.10;78.50
1988;DHT22;12775;46.994;15.498;2024-02-21T09:46:35;11.20;79.90
1988;DHT22;12775;46.994;15.498;2024-02-21T09:49:13;11.30;78.50
1988;DHT22;12775;46.994;15.498;2024-02-21T09:51:35;11.30;72.80
1988;DHT22;12775;46.994;15.498;2024-02-21T09:54:02;11.40;77.20
1988;DHT22;12775;46.994;15.498;2024-02-21T09:56:29;11.50;77.90
1988;DHT22;12775;46.994;15.498;2024-02-21T09:58:56;11.50;77.90
1988;DHT22;12775;46.994;15.498;2024-02-21T10:01:22;11.60;74.70
1988;DHT22;12775;46.994;15.498;2024-02-21T10:03:49;11.70;74.30
1988;DHT22;12775;46.994;15.498;2024-02-21T10:06:16;11.70;74.80
1988;DHT22;12775;46.994;15.498;2024-02-21T10:08:42;11.70;71.90
1988;DHT22;12775;46.994;15.498;2024-02-21T10:11:09;11.70;72.60
1988;DHT22;12775;46.994;15.498;2024-02-21T10:13:36;11.80;77.70
1988;DHT22;12775;46.994;15.498;2024-02-21T10:16:06;11.90;77.00
1988;DHT22;12775;46.994;15.498;2024-02-21T10:18:33;12.00;71.20
1988;DHT22;12775;46.994;15.498;2024-02-21T10:21:00;12.00;68.00
1988;DHT22;12775;46.994;15.498;2024-02-21T10:23:28;12.00;72.00
1988;DHT22;12775;46.994;15.498;2024-02-21T10:26:04;12.00;69.00
1988;DHT22;12775;46.994;15.498;2024-02-21T10:28:22;12.10;70.90
1988;DHT22;12775;46.994;15.498;2024-02-21T10:30:50;12.20;72.40
1988;DHT22;12775;46.994;15.498;2024-02-21T10:33:17;12.20;70.40
1988;DHT22;12775;46.994;15.498;2024-02-21T10:35:44;12.40;66.40
1988;DHT22;12775;46.994;15.498;2024-02-21T10:38:11;12.40;66.40
1988;DHT22;12775;46.994;15.498;2024-02-21T10:40:37;12.40;65.70
1988;DHT22;12775;46.994;15.498;2024-02-21T10:43:04;12.40;66.90
1988;DHT22;12775;46.994;15.498;2024-02-21T10:45:32;12.50;71.60
1988;DHT22;12775;46.994;15.498;2024-02-21T10:48:01;12.60;69.70
1988;DHT22;12775;46.994;15.498;2024-02-21T10:50:27;12.80;65.30
1988;DHT22;12775;46.994;15.498;2024-02-21T10:53:01;12.80;65.30
1988;DHT22;12775;46.994;15.498;2024-02-21T10:55:26;12.90;68.20
1988;DHT22;12775;46.994;15.498;2024-02-21T10:57:51;13.00;68.10
1988;DHT22;12775;46.994;15.498;2024-02-21T11:00:18;13.00;65.20
1988;DHT22;12775;46.994;15.498;2024-02-21T11:02:46;13.00;65.20
1988;DHT22;12775;46.994;15.498;2024-02-21T11:05:12;13.00;65.10
1988;DHT22;12775;46.994;15.498;2024-02-21T11:07:38;13.10;65.30
1988;DHT22;12775;46.994;15.498;2024-02-21T11:10:05;13.20;67.30
1988;DHT22;12775;46.994;15.498;2024-02-21T11:12:33;13.40;67.30
1988;DHT22;12775;46.994;15.498;2024-02-21T11:15:06;13.30;67.20
1988;DHT22;12775;46.994;15.498;2024-02-21T11:17:33;13.60;65.30
1988;DHT22;12775;46.994;15.498;2024-02-21T11:20:10;13.60;65.60
1988;DHT22;12775;46.994;15.498;2024-02-21T11:22:26;13.60;63.90
1988;DHT22;12775;46.994;15.498;2024-02-21T11:24:52;13.70;62.10
1988;DHT22;12775;46.994;15.498;2024-02-21T11:27:20;13.70;63.30
1988;DHT22;12775;46.994;15.498;2024-02-21T11:29:47;13.80;64.30
1988;DHT22;12775;46.994;15.498;2024-02-21T11:32:15;13.90;68.00
1988;DHT22;12775;46.994;15.498;2024-02-21T11:34:41;13.90;64.10
1988;DHT22;12775;46.994;15.498;2024-02-21T11:37:13;14.10;66.70
1988;DHT22;12775;46.994;15.498;2024-02-21T11:39:40;14.20;69.60
1988;DHT22;12775;46.994;15.498;2024-02-21T11:42:07;14.30;68.40
1988;DHT22;12775;46.994;15.498;2024-02-21T11:44:35;14.40;67.40
1988;DHT22;12775;46.994;15.498;2024-02-21T11:47:01;14.50;66.30
1988;DHT22;12775;46.994;15.498;2024-02-21T11:49:28;14.40;59.30
1988;DHT22;12775;46.994;15.498;2024-02-21T11:52:01;14.50;59.20
1988;DHT22;12775;46.994;15.498;2024-02-21T11:54:27;14.70;61.50
1988;DHT22;12775;46.994;15.498;2024-02-21T11:56:54;14.90;65.00
1988;DHT22;12775;46.994;15.498;2024-02-21T11:59:20;15.10;61.60
1988;DHT22;12775;46.994;15.498;2024-02-21T12:01:48;15.00;57.60
1988;DHT22;12775;46.994;15.498;2024-02-21T12:04:16;15.00;57.60
1988;DHT22;12775;46.994;15.498;2024-02-21T12:06:45;14.70;56.60
1988;DHT22;12775;46.994;15.498;2024-02-21T12:09:15;14.70;56.70
1988;DHT22;12775;46.994;15.498;2024-02-21T12:11:44;14.80;57.00
1988;DHT22;12775;46.994;15.498;2024-02-21T12:14:10;14.70;57.70
1988;DHT22;12775;46.994;15.498;2024-02-21T12:16:37;14.60;57.00
1988;DHT22;12775;46.994;15.498;2024-02-21T12:19:03;14.50;56.50
1988;DHT22;12775;46.994;15.498;2024-02-21T12:21:31;14.40;59.00
1988;DHT22;12775;46.994;15.498;2024-02-21T12:23:58;14.40;57.60
1988;DHT22;12775;46.994;15.498;2024-02-21T12:26:24;14.50;57.10
1988;DHT22;12775;46.994;15.498;2024-02-21T12:28:51;14.50;55.80
1988;DHT22;12775;46.994;15.498;2024-02-21T12:31:17;14.50;56.40
1988;DHT22;12775;46.994;15.498;2024-02-21T12:33:44;14.50;56.60
1988;DHT22;12775;46.994;15.498;2024-02-21T12:36:10;14.50;56.50
1988;DHT22;12775;46.994;15.498;2024-02-21T12:38:37;14.50;55.50
1988;DHT22;12775;46.994;15.498;2024-02-21T12:41:04;14.50;56.10
1988;DHT22;12775;46.994;15.498;2024-02-21T12:43:30;14.50;55.80
1988;DHT22;12775;46.994;15.498;2024-02-21T12:45:57;14.50;54.90
1988;DHT22;12775;46.994;15.498;2024-02-21T12:48:23;14.50;54.10
1988;DHT22;12775;46.994;15.498;2024-02-21T12:50:50;14.60;54.70
1988;DHT22;12775;46.994;15.498;2024-02-21T12:53:18;14.80;57.60
1988;DHT22;12775;46.994;15.498;2024-02-21T12:55:45;14.90;60.30
1988;DHT22;12775;46.994;15.498;2024-02-21T12:58:11;14.90;57.40
1988;DHT22;12775;46.994;15.498;2024-02-21T13:00:38;15.10;56.30
1988;DHT22;12775;46.994;15.498;2024-02-21T13:03:04;15.20;57.10
1988;DHT22;12775;46.994;15.498;2024-02-21T13:05:31;15.30;54.70
1988;DHT22;12775;46.994;15.498;2024-02-21T13:07:58;15.50;54.20
1988;DHT22;12775;46.994;15.498;2024-02-21T13:10:24;15.40;52.60
1988;DHT22;12775;46.994;15.498;2024-02-21T13:12:51;15.30;52.40
1988;DHT22;12775;46.994;15.498;2024-02-21T13:15:19;15.20;54.60
1988;DHT22;12775;46.994;15.498;2024-02-21T13:17:46;15.30;55.30
1988;DHT22;12775;46.994;15.498;2024-02-21T13:20:13;15.30;55.30
1988;DHT22;12775;46.994;15.498;2024-02-21T13:22:40;15.20;54.80
1988;DHT22;12775;46.994;15.498;2024-02-21T13:25:07;15.10;56.30
1988;DHT22;12775;46.994;15.498;2024-02-21T13:27:34;15.20;53.70
1988;DHT22;12775;46.994;15.498;2024-02-21T13:30:01;15.20;55.90
1988;DHT22;12775;46.994;15.498;2024-02-21T13:32:28;15.30;54.70
1988;DHT22;12775;46.994;15.498;2024-02-21T13:34:55;15.40;53.80
1988;DHT22;12775;46.994;15.498;2024-02-21T13:37:22;15.40;52.50
1988;DHT22;12775;46.994;15.498;2024-02-21T13:39:49;15.40;52.50
1988;DHT22;12775;46.994;15.498;2024-02-21T13:42:15;15.50;52.20
1988;DHT22;12775;46.994;15.498;2024-02-21T13:44:42;15.60;52.90
1988;DHT22;12775;46.994;15.498;2024-02-21T13:47:08;15.50;51.20
1988;DHT22;12775;46.994;15.498;2024-02-21T13:49:36;15.60;52.40
1988;DHT22;12775;46.994;15.498;2024-02-21T13:52:03;15.70;53.20
1988;DHT22;12775;46.994;15.498;2024-02-21T13:54:30;15.60;51.10
1988;DHT22;12775;46.994;15.498;2024-02-21T13:56:57;15.60;51.20
1988;DHT22;12775;46.994;15.498;2024-02-21T13:59:23;15.60;51.70
1988;DHT22;12775;46.994;15.498;2024-02-21T14:01:50;15.60;52.40
1988;DHT22;12775;46.994;15.498;2024-02-21T14:04:17;15.60;51.50
1988;DHT22;12775;46.994;15.498;2024-02-21T14:06:44;15.50;51.10
1988;DHT22;12775;46.994;15.498;2024-02-21T14:09:11;15.50;51.10
1988;DHT22;12775;46.994;15.498;2024-02-21T14:11:38;15.20;51.50
1988;DHT22;12775;46.994;15.498;2024-02-21T14:14:05;15.10;52.20
1988;DHT22;12775;46.994;15.498;2024-02-21T14:16:33;14.90;52.10
1988;DHT22;12775;46.994;15.498;2024-02-21T14:19:00;14.90;52.10
1988;DHT22;12775;46.994;15.498;2024-02-21T14:21:26;15.00;53.00
1988;DHT22;12775;46.994;15.498;2024-02-21T14:23:54;15.00;51.80
1988;DHT22;12775;46.994;15.498;2024-02-21T14:26:21;14.90;50.10
1988;DHT22;12775;46.994;15.498;2024-02-21T14:28:48;14.90;51.50
1988;DHT22;12775;46.994;15.498;2024-02-21T14:31:14;14.90;50.90
1988;DHT22;12775;46.994;15.498;2024-02-21T14:33:41;14.90;52.10
1988;DHT22;12775;46.994;15.498;2024-02-21T14:36:08;15.00;52.50
1988;DHT22;12775;46.994;15.498;2024-02-21T14:38:34;15.10;52.40
1988;DHT22;12775;46.994;15.498;2024-02-21T14:41:02;15.10;52.50
1988;DHT22;12775;46.994;15.498;2024-02-21T14:43:28;15.00;52.40
1988;DHT22;12775;46.994;15.498;2024-02-21T14:45:56;15.00;52.30
1988;DHT22;12775;46.994;15.498;2024-02-21T14:48:23;14.90;51.70
1988;DHT22;12775;46.994;15.498;2024-02-21T14:50:51;14.80;51.00
1988;DHT22;12775;46.994;15.498;2024-02-21T14:53:17;14.80;51.20
1988;DHT22;12775;46.994;15.498;2024-02-21T14:55:44;14.70;51.60
1988;DHT22;12775;46.994;15.498;2024-02-21T14:58:10;14.70;51.40
1988;DHT22;12775;46.994;15.498;2024-02-21T15:00:38;14.60;51.60
1988;DHT22;12775;46.994;15.498;2024-02-21T15:03:05;14.70;51.90
1988;DHT22;12775;46.994;15.498;2024-02-21T15:05:31;14.70;51.10
1988;DHT22;12775;46.994;15.498;2024-02-21T15:07:58;14.80;52.40
1988;DHT22;12775;46.994;15.498;2024-02-21T15:10:25;14.80;52.30
1988;DHT22;12775;46.994;15.498;2024-02-21T15:12:52;14.90;51.50
1988;DHT22;12775;46.994;15.498;2024-02-21T15:15:19;14.80;51.20
1988;DHT22;12775;46.994;15.498;2024-02-21T15:17:45;14.70;51.90
1988;DHT22;12775;46.994;15.498;2024-02-21T15:20:12;14.80;52.30
1988;DHT22;12775;46.994;15.498;2024-02-21T15:22:38;14.80;53.00
1988;DHT22;12775;46.994;15.498;2024-02-21T15:25:05;14.70;53.00
1988;DHT22;12775;46.994;15.498;2024-02-21T15:27:32;14.70;53.20
1988;DHT22;12775;46.994;15.498;2024-02-21T15:29:58;14.70;53.50
1988;DHT22;12775;46.994;15.498;2024-02-21T15:32:25;14.70;53.60
1988;DHT22;12775;46.994;15.498;2024-02-21T15:34:53;14.50;52.30
1988;DHT22;12775;46.994;15.498;2024-02-21T15:37:20;14.50;52.30
1988;DHT22;12775;46.994;15.498;2024-02-21T15:39:46;14.50;52.40